sensor_id;sensor_type;location;lat;lon;timestamp;temperature;humidity
30336;DHT22;17142;47.990;7.846;2022-10-31T00:06:42;13.50;99.90
30336;DHT22;17142;47.990;7.846;2022-10-31T00:09:10;13.40;99.90
30336;DHT22;17142;47.990;7.846;2022-10-31T00:11:36;13.30;99.90
30336;DHT22;17142;47.990;7.846;2022-10-31T00:14:05;13.20;99.90
30336;DHT22;17142;47.990;7.846;2022-10-31T00:16:33;13.10;99.90
30336;DHT22;17142;47.990;7.846;2022-10-31T00:19:00;13.10;99.90
30336;DHT22;17142;47.990;7.846;2022-10-31T00:21:28;13.10;99.90
30336;DHT22;17142;47.990;7.846;2022-10-31T00:23:54;13.10;99.90
30336;DHT22;17142;47.990;7.846;2022-10-31T00:26:24;13.10;99.90
30336;DHT22;17142;47.990;7.846;2022-10-31T00:28:50;13.00;99.90
30336;DHT22;17142;47.990;7.846;2022-10-31T00:31:16;13.20;99.90
30336;DHT22;17142;47.990;7.846;2022-10-31T00:33:42;13.20;99.90
30336;DHT22;17142;47.990;7.846;2022-10-31T00:36:16;13.20;99.90
30336;DHT22;17142;47.990;7.846;2022-10-31T06:46:24;11.90;99.90
30336;DHT22;17142;47.990;7.846;2022-10-31T06:48:50;12.10;99.90
30336;DHT22;17142;47.990;7.846;2022-10-31T06:51:15;12.20;99.90
30336;DHT22;17142;47.990;7.846;2022-10-31T06:53:44;12.40;99.90
30336;DHT22;17142;47.990;7.846;2022-10-31T06:56:09;12.50;99.90
30336;DHT22;17142;47.990;7.846;2022-10-31T06:58:35;12.70;99.90
30336;DHT22;17142;47.990;7.846;2022-10-31T07:01:01;12.80;99.90
30336;DHT22;17142;47.990;7.846;2022-10-31T07:03:26;13.00;99.90
30336;DHT22;17142;47.990;7.846;2022-10-31T07:05:54;13.10;99.90
30336;DHT22;17142;47.990;7.846;2022-10-31T07:08:19;13.20;99.90
30336;DHT22;17142;47.990;7.846;2022-10-31T07:10:54;13.40;99.90
30336;DHT22;17142;47.990;7.846;2022-10-31T07:13:21;13.50;99.90
30336;DHT22;17142;47.990;7.846;2022-10-31T07:16:00;13.60;99.90
30336;DHT22;17142;47.990;7.846;2022-10-31T07:18:26;13.70;99.90
30336;DHT22;17142;47.990;7.846;2022-10-31T07:20:52;13.70;99.90
30336;DHT22;17142;47.990;7.846;2022-10-31T07:23:18;13.70;99.90
30336;DHT22;17142;47.990;7.846;2022-10-31T07:25:44;13.80;99.90
30336;DHT22;17142;47.990;7.846;2022-10-31T07:28:10;13.80;99.90
30336;DHT22;17142;47.990;7.846;2022-10-31T07:30:39;13.80;99.90
30336;DHT22;17142;47.990;7.846;2022-10-31T07:33:05;13.90;99.90
30336;DHT22;17142;47.990;7.846;2022-10-31T07:35:31;14.00;99.90
30336;DHT22;17142;47.990;7.846;2022-10-31T07:38:05;14.00;99.90
30336;DHT22;17142;47.990;7.846;2022-10-31T07:40:34;14.10;99.90
30336;DHT22;17142;47.990;7.846;2022-10-31T07:43:00;14.20;99.90
30336;DHT22;17142;47.990;7.846;2022-10-31T07:45:26;14.30;99.90
30336;DHT22;17142;47.990;7.846;2022-10-31T07:47:52;14.40;99.90
30336;DHT22;17142;47.990;7.846;2022-10-31T07:50:27;14.40;99.90
30336;DHT22;17142;47.990;7.846;2022-10-31T07:53:00;14.50;99.90
30336;DHT22;17142;47.990;7.846;2022-10-31T07:55:26;14.60;99.90
30336;DHT22;17142;47.990;7.846;2022-10-31T07:57:56;14.70;99.90
30336;DHT22;17142;47.990;7.846;2022-10-31T08:00:24;14.80;99.90
30336;DHT22;17142;47.990;7.846;2022-10-31T08:03:06;14.80;99.90
30336;DHT22;17142;47.990;7.846;2022-10-31T08:05:33;14.80;99.90
30336;DHT22;17142;47.990;7.846;2022-10-31T08:08:02;14.90;99.90
30336;DHT22;17142;47.990;7.846;2022-10-31T08:10:28;14.90;99.90
30336;DHT22;17142;47.990;7.846;2022-10-31T08:13:20;15.00;99.90
30336;DHT22;17142;47.990;7.846;2022-10-31T08:15:45;15.10;99.90
30336;DHT22;17142;47.990;7.846;2022-10-31T08:18:17;15.20;99.90
30336;DHT22;17142;47.990;7.846;2022-10-31T08:20:43;15.40;99.90
30336;DHT22;17142;47.990;7.846;2022-10-31T08:23:10;15.50;99.90
30336;DHT22;17142;47.990;7.846;2022-10-31T08:25:37;15.60;99.90
30336;DHT22;17142;47.990;7.846;2022-10-31T08:28:06;15.70;99.90
30336;DHT22;17142;47.990;7.846;2022-10-31T08:30:35;15.70;99.90
30336;DHT22;17142;47.990;7.846;2022-10-31T08:33:06;15.80;99.90
30336;DHT22;17142;47.990;7.846;2022-10-31T08:35:37;15.80;99.90
30336;DHT22;17142;47.990;7.846;2022-10-31T08:38:03;15.90;99.90
30336;DHT22;17142;47.990;7.846;2022-10-31T08:40:33;16.00;99.90
30336;DHT22;17142;47.990;7.846;2022-10-31T08:43:05;16.00;99.90
30336;DHT22;17142;47.990;7.846;2022-10-31T08:45:32;16.10;99.90
30336;DHT22;17142;47.990;7.846;2022-10-31T08:48:00;16.10;99.90
30336;DHT22;17142;47.990;7.846;2022-10-31T08:50:29;16.20;99.90
30336;DHT22;17142;47.990;7.846;2022-10-31T08:53:27;16.20;99.90
30336;DHT22;17142;47.990;7.846;2022-10-31T08:55:55;16.30;99.90
30336;DHT22;17142;47.990;7.846;2022-10-31T08:58:21;16.40;99.90
30336;DHT22;17142;47.990;7.846;2022-10-31T09:00:52;16.50;99.90
30336;DHT22;17142;47.990;7.846;2022-10-31T09:03:25;16.50;99.90
30336;DHT22;17142;47.990;7.846;2022-10-31T09:06:01;16.70;99.90
30336;DHT22;17142;47.990;7.846;2022-10-31T09:08:30;16.80;99.90
30336;DHT22;17142;47.990;7.846;2022-10-31T09:10:57;16.80;99.90
30336;DHT22;17142;47.990;7.846;2022-10-31T09:13:25;16.90;99.90
30336;DHT22;17142;47.990;7.846;2022-10-31T09:15:51;17.00;99.90
30336;DHT22;17142;47.990;7.846;2022-10-31T09:18:20;17.10;99.90
30336;DHT22;17142;47.990;7.846;2022-10-31T09:20:47;17.10;99.90
30336;DHT22;17142;47.990;7.846;2022-10-31T09:23:17;17.20;99.90
30336;DHT22;17142;47.990;7.846;2022-10-31T09:25:47;17.30;99.90
30336;DHT22;17142;47.990;7.846;2022-10-31T09:28:14;17.40;99.90
30336;DHT22;17142;47.990;7.846;2022-10-31T09:30:40;17.50;99.90
30336;DHT22;17142;47.990;7.846;2022-10-31T09:33:10;17.60;99.90
30336;DHT22;17142;47.990;7.846;2022-10-31T09:35:36;17.70;99.90
30336;DHT22;17142;47.990;7.846;2022-10-31T09:38:08;17.70;99.90
30336;DHT22;17142;47.990;7.846;2022-10-31T09:40:36;17.80;99.90
30336;DHT22;17142;47.990;7.846;2022-10-31T09:51:17;18.00;99.90
30336;DHT22;17142;47.990;7.846;2022-10-31T09:56:25;18.00;99.90
30336;DHT22;17142;47.990;7.846;2022-10-31T09:58:57;17.90;99.90
30336;DHT22;17142;47.990;7.846;2022-10-31T10:01:39;17.80;99.90
30336;DHT22;17142;47.990;7.846;2022-10-31T10:06:56;17.70;99.90
30336;DHT22;17142;47.990;7.846;2022-10-31T10:09:26;17.80;99.90
30336;DHT22;17142;47.990;7.846;2022-10-31T10:17:41;18.00;99.90
30336;DHT22;17142;47.990;7.846;2022-10-31T10:25:45;18.30;99.90
30336;DHT22;17142;47.990;7.846;2022-10-31T10:28:29;18.30;99.90
30336;DHT22;17142;47.990;7.846;2022-10-31T10:33:28;18.20;99.90
30336;DHT22;17142;47.990;7.846;2022-10-31T10:36:04;18.10;99.90
30336;DHT22;17142;47.990;7.846;2022-10-31T10:38:38;18.00;99.90
30336;DHT22;17142;47.990;7.846;2022-10-31T10:41:17;18.00;99.90
30336;DHT22;17142;47.990;7.846;2022-10-31T10:43:43;18.00;99.90
30336;DHT22;17142;47.990;7.846;2022-10-31T10:49:42;17.90;99.90
30336;DHT22;17142;47.990;7.846;2022-10-31T11:02:47;17.30;99.90
30336;DHT22;17142;47.990;7.846;2022-10-31T11:05:44;17.40;99.90
30336;DHT22;17142;47.990;7.846;2022-10-31T11:08:22;17.40;99.90
30336;DHT22;17142;47.990;7.846;2022-10-31T11:11:41;17.60;99.90
30336;DHT22;17142;47.990;7.846;2022-10-31T11:13:44;17.70;99.90
30336;DHT22;17142;47.990;7.846;2022-10-31T11:16:26;17.80;99.90
30336;DHT22;17142;47.990;7.846;2022-10-31T11:18:53;17.90;99.90
30336;DHT22;17142;47.990;7.846;2022-10-31T11:21:24;18.00;99.90
30336;DHT22;17142;47.990;7.846;2022-10-31T11:26:40;18.10;99.90
30336;DHT22;17142;47.990;7.846;2022-10-31T11:29:34;18.10;99.90
30336;DHT22;17142;47.990;7.846;2022-10-31T11:32:04;18.10;99.90
30336;DHT22;17142;47.990;7.846;2022-10-31T11:34:33;18.20;99.90
30336;DHT22;17142;47.990;7.846;2022-10-31T11:37:24;18.40;99.90
30336;DHT22;17142;47.990;7.846;2022-10-31T11:39:53;18.60;99.90
30336;DHT22;17142;47.990;7.846;2022-10-31T11:42:35;18.90;99.90
30336;DHT22;17142;47.990;7.846;2022-10-31T11:45:05;19.00;99.90
30336;DHT22;17142;47.990;7.846;2022-10-31T11:47:36;19.20;99.90
30336;DHT22;17142;47.990;7.846;2022-10-31T11:50:10;19.40;99.90
30336;DHT22;17142;47.990;7.846;2022-10-31T11:52:38;19.30;99.90
30336;DHT22;17142;47.990;7.846;2022-10-31T11:55:15;19.30;99.90
30336;DHT22;17142;47.990;7.846;2022-10-31T12:00:25;19.50;99.90
30336;DHT22;17142;47.990;7.846;2022-10-31T12:05:37;19.50;99.90
30336;DHT22;17142;47.990;7.846;2022-10-31T12:08:06;19.40;99.90
30336;DHT22;17142;47.990;7.846;2022-10-31T12:10:51;19.40;99.90
30336;DHT22;17142;47.990;7.846;2022-10-31T12:13:48;19.40;99.90
30336;DHT22;17142;47.990;7.846;2022-10-31T12:22:04;19.60;99.90
30336;DHT22;17142;47.990;7.846;2022-10-31T12:24:45;19.70;99.90
30336;DHT22;17142;47.990;7.846;2022-10-31T12:30:18;19.70;99.90
30336;DHT22;17142;47.990;7.846;2022-10-31T12:41:40;19.20;99.90
30336;DHT22;17142;47.990;7.846;2022-10-31T12:47:06;19.00;99.90
30336;DHT22;17142;47.990;7.846;2022-10-31T12:49:58;18.90;99.90
30336;DHT22;17142;47.990;7.846;2022-10-31T12:52:34;18.90;99.90
30336;DHT22;17142;47.990;7.846;2022-10-31T12:55:08;19.00;99.90
30336;DHT22;17142;47.990;7.846;2022-10-31T12:57:44;19.00;99.90
30336;DHT22;17142;47.990;7.846;2022-10-31T13:00:16;19.00;99.90
30336;DHT22;17142;47.990;7.846;2022-10-31T13:05:32;19.00;99.90
30336;DHT22;17142;47.990;7.846;2022-10-31T13:10:32;18.90;99.90
30336;DHT22;17142;47.990;7.846;2022-10-31T13:13:22;18.80;99.90
30336;DHT22;17142;47.990;7.846;2022-10-31T13:15:59;18.70;99.90
30336;DHT22;17142;47.990;7.846;2022-10-31T13:18:33;18.60;99.90
30336;DHT22;17142;47.990;7.846;2022-10-31T13:21:07;18.60;99.90
30336;DHT22;17142;47.990;7.846;2022-10-31T13:23:37;18.60;99.90
30336;DHT22;17142;47.990;7.846;2022-10-31T13:26:11;18.60;99.90
30336;DHT22;17142;47.990;7.846;2022-10-31T13:28:43;18.70;99.90
30336;DHT22;17142;47.990;7.846;2022-10-31T13:31:13;18.80;99.90
30336;DHT22;17142;47.990;7.846;2022-10-31T13:33:53;18.90;99.90
30336;DHT22;17142;47.990;7.846;2022-10-31T13:38:52;19.20;99.90
30336;DHT22;17142;47.990;7.846;2022-10-31T13:41:45;19.40;99.90
30336;DHT22;17142;47.990;7.846;2022-10-31T13:44:29;19.70;99.90
30336;DHT22;17142;47.990;7.846;2022-10-31T13:47:00;19.80;99.90
30336;DHT22;17142;47.990;7.846;2022-10-31T13:54:39;19.60;99.90
30336;DHT22;17142;47.990;7.846;2022-10-31T13:59:58;19.40;99.90
30336;DHT22;17142;47.990;7.846;2022-10-31T14:02:30;19.40;99.90
30336;DHT22;17142;47.990;7.846;2022-10-31T14:05:00;19.30;99.90
30336;DHT22;17142;47.990;7.846;2022-10-31T14:07:28;19.20;99.90
30336;DHT22;17142;47.990;7.846;2022-10-31T14:12:43;19.00;99.90
30336;DHT22;17142;47.990;7.846;2022-10-31T14:17:50;18.80;99.90
30336;DHT22;17142;47.990;7.846;2022-10-31T14:22:42;18.80;99.90
30336;DHT22;17142;47.990;7.846;2022-10-31T14:25:46;18.80;99.90
30336;DHT22;17142;47.990;7.846;2022-10-31T14:28:31;18.80;99.90
30336;DHT22;17142;47.990;7.846;2022-10-31T14:31:00;18.80;99.90
30336;DHT22;17142;47.990;7.846;2022-10-31T14:33:31;18.90;99.90
30336;DHT22;17142;47.990;7.846;2022-10-31T14:36:05;19.00;99.90
30336;DHT22;17142;47.990;7.846;2022-10-31T14:38:57;19.10;99.90
30336;DHT22;17142;47.990;7.846;2022-10-31T14:44:27;19.30;99.90
30336;DHT22;17142;47.990;7.846;2022-10-31T14:47:12;19.30;99.90
30336;DHT22;17142;47.990;7.846;2022-10-31T14:52:48;19.30;99.90
30336;DHT22;17142;47.990;7.846;2022-10-31T14:55:15;19.20;99.90
30336;DHT22;17142;47.990;7.846;2022-10-31T14:58:06;19.10;99.90
30336;DHT22;17142;47.990;7.846;2022-10-31T15:00:33;19.00;99.90
30336;DHT22;17142;47.990;7.846;2022-10-31T15:03:14;18.90;99.90
30336;DHT22;17142;47.990;7.846;2022-10-31T15:05:56;18.70;99.90
30336;DHT22;17142;47.990;7.846;2022-10-31T15:08:40;18.50;99.90
30336;DHT22;17142;47.990;7.846;2022-10-31T15:13:44;18.20;99.90
30336;DHT22;17142;47.990;7.846;2022-10-31T15:16:15;18.10;99.90
30336;DHT22;17142;47.990;7.846;2022-10-31T15:19:04;18.00;99.90
30336;DHT22;17142;47.990;7.846;2022-10-31T15:21:31;17.90;99.90
30336;DHT22;17142;47.990;7.846;2022-10-31T15:24:00;17.80;99.90
30336;DHT22;17142;47.990;7.846;2022-10-31T15:26:31;17.70;99.90
30336;DHT22;17142;47.990;7.846;2022-10-31T15:29:13;17.50;99.90
30336;DHT22;17142;47.990;7.846;2022-10-31T15:31:48;17.40;99.90
30336;DHT22;17142;47.990;7.846;2022-10-31T15:34:21;17.30;99.90
30336;DHT22;17142;47.990;7.846;2022-10-31T15:36:48;17.20;99.90
30336;DHT22;17142;47.990;7.846;2022-10-31T15:39:20;17.20;99.90
30336;DHT22;17142;47.990;7.846;2022-10-31T15:41:52;17.20;99.90
30336;DHT22;17142;47.990;7.846;2022-10-31T15:44:39;17.00;99.90
30336;DHT22;17142;47.990;7.846;2022-10-31T15:47:22;17.00;99.90
30336;DHT22;17142;47.990;7.846;2022-10-31T15:49:55;16.90;99.90
30336;DHT22;17142;47.990;7.846;2022-10-31T15:52:33;16.80;99.90
30336;DHT22;17142;47.990;7.846;2022-10-31T15:55:24;16.70;99.90
30336;DHT22;17142;47.990;7.846;2022-10-31T15:57:52;16.70;99.90
30336;DHT22;17142;47.990;7.846;2022-10-31T16:00:26;16.60;99.90
30336;DHT22;17142;47.990;7.846;2022-10-31T16:05:50;16.40;99.90
30336;DHT22;17142;47.990;7.846;2022-10-31T16:13:38;16.00;99.90
30336;DHT22;17142;47.990;7.846;2022-10-31T16:16:16;15.80;99.90
30336;DHT22;17142;47.990;7.846;2022-10-31T16:18:43;15.70;99.90
30336;DHT22;17142;47.990;7.846;2022-10-31T16:21:09;15.50;99.90
30336;DHT22;17142;47.990;7.846;2022-10-31T16:23:37;15.30;99.90
30336;DHT22;17142;47.990;7.846;2022-10-31T16:26:07;15.20;99.90
30336;DHT22;17142;47.990;7.846;2022-10-31T16:28:33;15.10;99.90
30336;DHT22;17142;47.990;7.846;2022-10-31T16:31:00;15.00;99.90
30336;DHT22;17142;47.990;7.846;2022-10-31T16:33:35;14.90;99.90
30336;DHT22;17142;47.990;7.846;2022-10-31T16:38:58;14.70;99.90
30336;DHT22;17142;47.990;7.846;2022-10-31T16:41:25;14.60;99.90
30336;DHT22;17142;47.990;7.846;2022-10-31T16:43:56;14.50;99.90
30336;DHT22;17142;47.990;7.846;2022-10-31T16:46:28;14.50;99.90
30336;DHT22;17142;47.990;7.846;2022-10-31T16:48:54;14.40;99.90
30336;DHT22;17142;47.990;7.846;2022-10-31T16:51:22;14.40;99.90
30336;DHT22;17142;47.990;7.846;2022-10-31T16:53:51;14.30;99.90
30336;DHT22;17142;47.990;7.846;2022-10-31T16:56:28;14.30;99.90
30336;DHT22;17142;47.990;7.846;2022-10-31T16:58:54;14.30;99.90
30336;DHT22;17142;47.990;7.846;2022-10-31T17:01:21;14.20;99.90
30336;DHT22;17142;47.990;7.846;2022-10-31T17:03:49;14.20;99.90
30336;DHT22;17142;47.990;7.846;2022-10-31T17:06:15;14.10;99.90
30336;DHT22;17142;47.990;7.846;2022-10-31T17:08:41;14.10;99.90
30336;DHT22;17142;47.990;7.846;2022-10-31T17:11:16;14.00;99.90
30336;DHT22;17142;47.990;7.846;2022-10-31T17:13:42;13.90;99.90
30336;DHT22;17142;47.990;7.846;2022-10-31T17:16:08;13.90;99.90
30336;DHT22;17142;47.990;7.846;2022-10-31T17:18:33;13.90;99.90
30336;DHT22;17142;47.990;7.846;2022-10-31T17:21:01;13.90;99.90
30336;DHT22;17142;47.990;7.846;2022-10-31T17:23:28;14.00;99.90
30336;DHT22;17142;47.990;7.846;2022-10-31T17:25:54;14.10;99.90
30336;DHT22;17142;47.990;7.846;2022-10-31T17:28:20;14.00;99.90
30336;DHT22;17142;47.990;7.846;2022-10-31T17:30:46;14.00;99.90
30336;DHT22;17142;47.990;7.846;2022-10-31T17:33:13;13.90;99.90
30336;DHT22;17142;47.990;7.846;2022-10-31T17:35:42;13.90;99.90
30336;DHT22;17142;47.990;7.846;2022-10-31T17:38:09;14.00;99.90
30336;DHT22;17142;47.990;7.846;2022-10-31T17:40:39;14.10;99.90
30336;DHT22;17142;47.990;7.846;2022-10-31T17:43:08;14.20;99.90
30336;DHT22;17142;47.990;7.846;2022-10-31T17:45:39;14.30;99.90
30336;DHT22;17142;47.990;7.846;2022-10-31T17:48:05;14.30;99.90
30336;DHT22;17142;47.990;7.846;2022-10-31T17:50:33;14.30;99.90
30336;DHT22;17142;47.990;7.846;2022-10-31T17:53:01;14.40;99.90
30336;DHT22;17142;47.990;7.846;2022-10-31T17:55:30;14.40;99.90
30336;DHT22;17142;47.990;7.846;2022-10-31T17:57:55;14.30;99.90
30336;DHT22;17142;47.990;7.846;2022-10-31T18:00:23;14.20;99.90
30336;DHT22;17142;47.990;7.846;2022-10-31T18:02:49;14.20;99.90
30336;DHT22;17142;47.990;7.846;2022-10-31T18:05:17;14.30;99.90
30336;DHT22;17142;47.990;7.846;2022-10-31T18:07:43;14.30;99.90
30336;DHT22;17142;47.990;7.846;2022-10-31T18:10:11;14.40;99.90
30336;DHT22;17142;47.990;7.846;2022-10-31T18:12:37;14.30;99.90
30336;DHT22;17142;47.990;7.846;2022-10-31T18:15:06;14.20;99.90
30336;DHT22;17142;47.990;7.846;2022-10-31T18:17:34;14.10;99.90
30336;DHT22;17142;47.990;7.846;2022-10-31T18:19:59;14.10;99.90
30336;DHT22;17142;47.990;7.846;2022-10-31T18:22:28;14.00;99.90
30336;DHT22;17142;47.990;7.846;2022-10-31T18:24:56;13.90;99.90
30336;DHT22;17142;47.990;7.846;2022-10-31T18:27:21;13.90;99.90
30336;DHT22;17142;47.990;7.846;2022-10-31T18:29:47;13.90;99.90
30336;DHT22;17142;47.990;7.846;2022-10-31T18:32:13;13.90;99.90
30336;DHT22;17142;47.990;7.846;2022-10-31T18:34:38;13.90;99.90
30336;DHT22;17142;47.990;7.846;2022-10-31T18:37:06;13.90;99.90
30336;DHT22;17142;47.990;7.846;2022-10-31T18:39:32;13.80;99.90
30336;DHT22;17142;47.990;7.846;2022-10-31T18:41:57;13.80;99.90
30336;DHT22;17142;47.990;7.846;2022-10-31T18:44:25;13.90;99.90
30336;DHT22;17142;47.990;7.846;2022-10-31T18:46:52;13.90;99.90
30336;DHT22;17142;47.990;7.846;2022-10-31T18:49:20;13.80;99.90
30336;DHT22;17142;47.990;7.846;2022-10-31T18:51:50;13.80;99.90
30336;DHT22;17142;47.990;7.846;2022-10-31T18:54:16;13.80;99.90
30336;DHT22;17142;47.990;7.846;2022-10-31T18:56:48;13.80;99.90
30336;DHT22;17142;47.990;7.846;2022-10-31T18:59:14;13.80;99.90
30336;DHT22;17142;47.990;7.846;2022-10-31T19:01:40;13.80;99.90
30336;DHT22;17142;47.990;7.846;2022-10-31T19:04:05;13.80;99.90
30336;DHT22;17142;47.990;7.846;2022-10-31T19:06:33;13.80;99.90
30336;DHT22;17142;47.990;7.846;2022-10-31T19:09:02;13.90;99.90
30336;DHT22;17142;47.990;7.846;2022-10-31T19:11:31;13.90;99.90
30336;DHT22;17142;47.990;7.846;2022-10-31T19:13:59;13.90;99.90
30336;DHT22;17142;47.990;7.846;2022-10-31T19:16:25;13.90;99.90
30336;DHT22;17142;47.990;7.846;2022-10-31T19:18:58;13.90;99.90
30336;DHT22;17142;47.990;7.846;2022-10-31T19:21:24;13.90;99.90
30336;DHT22;17142;47.990;7.846;2022-10-31T19:23:52;13.90;99.90
30336;DHT22;17142;47.990;7.846;2022-10-31T19:26:18;13.90;99.90
30336;DHT22;17142;47.990;7.846;2022-10-31T19:28:48;13.80;99.90
30336;DHT22;17142;47.990;7.846;2022-10-31T19:31:14;13.80;99.90
30336;DHT22;17142;47.990;7.846;2022-10-31T19:33:43;13.80;99.90
30336;DHT22;17142;47.990;7.846;2022-10-31T19:36:11;13.70;99.90
30336;DHT22;17142;47.990;7.846;2022-10-31T19:38:40;13.60;99.90
30336;DHT22;17142;47.990;7.846;2022-10-31T19:41:14;13.60;99.90
30336;DHT22;17142;47.990;7.846;2022-10-31T19:43:40;13.50;99.90
30336;DHT22;17142;47.990;7.846;2022-10-31T19:46:06;13.50;99.90
30336;DHT22;17142;47.990;7.846;2022-10-31T19:48:36;13.50;99.90
30336;DHT22;17142;47.990;7.846;2022-10-31T19:51:10;13.40;99.90
30336;DHT22;17142;47.990;7.846;2022-10-31T19:53:36;13.30;99.90
30336;DHT22;17142;47.990;7.846;2022-10-31T19:56:03;13.20;99.90
30336;DHT22;17142;47.990;7.846;2022-10-31T19:58:30;13.00;99.90
30336;DHT22;17142;47.990;7.846;2022-10-31T20:00:56;12.90;99.90
30336;DHT22;17142;47.990;7.846;2022-10-31T20:03:22;12.70;99.90
30336;DHT22;17142;47.990;7.846;2022-10-31T20:05:50;12.60;99.90
30336;DHT22;17142;47.990;7.846;2022-10-31T20:08:18;12.60;99.90
30336;DHT22;17142;47.990;7.846;2022-10-31T20:10:58;12.70;99.90
30336;DHT22;17142;47.990;7.846;2022-10-31T20:13:24;12.80;99.90
30336;DHT22;17142;47.990;7.846;2022-10-31T20:15:57;12.90;99.90
30336;DHT22;17142;47.990;7.846;2022-10-31T20:18:28;12.90;99.90
30336;DHT22;17142;47.990;7.846;2022-10-31T20:21:06;12.90;99.90
30336;DHT22;17142;47.990;7.846;2022-10-31T20:23:33;12.90;99.90
30336;DHT22;17142;47.990;7.846;2022-10-31T20:25:58;13.00;99.90
30336;DHT22;17142;47.990;7.846;2022-10-31T20:28:24;13.00;99.90
30336;DHT22;17142;47.990;7.846;2022-10-31T20:30:50;13.10;99.90
30336;DHT22;17142;47.990;7.846;2022-10-31T20:33:18;13.10;99.90
30336;DHT22;17142;47.990;7.846;2022-10-31T20:35:43;13.10;99.90
30336;DHT22;17142;47.990;7.846;2022-10-31T20:38:09;13.20;99.90
30336;DHT22;17142;47.990;7.846;2022-10-31T20:40:35;13.10;99.90
30336;DHT22;17142;47.990;7.846;2022-10-31T20:43:02;13.20;99.90
30336;DHT22;17142;47.990;7.846;2022-10-31T20:45:29;13.20;99.90
30336;DHT22;17142;47.990;7.846;2022-10-31T20:47:55;13.20;99.90
30336;DHT22;17142;47.990;7.846;2022-10-31T20:50:21;13.20;99.90
30336;DHT22;17142;47.990;7.846;2022-10-31T20:52:47;13.10;99.90
30336;DHT22;17142;47.990;7.846;2022-10-31T20:55:13;13.10;99.90
30336;DHT22;17142;47.990;7.846;2022-10-31T20:57:39;13.10;99.90
30336;DHT22;17142;47.990;7.846;2022-10-31T21:00:08;13.10;99.90
30336;DHT22;17142;47.990;7.846;2022-10-31T21:02:37;13.10;99.90
30336;DHT22;17142;47.990;7.846;2022-10-31T21:05:05;13.20;99.90
30336;DHT22;17142;47.990;7.846;2022-10-31T21:07:35;13.20;99.90
30336;DHT22;17142;47.990;7.846;2022-10-31T21:10:06;13.20;99.90
30336;DHT22;17142;47.990;7.846;2022-10-31T21:12:40;13.20;99.90
30336;DHT22;17142;47.990;7.846;2022-10-31T21:15:09;13.20;99.90
30336;DHT22;17142;47.990;7.846;2022-10-31T21:17:35;13.10;99.90
30336;DHT22;17142;47.990;7.846;2022-10-31T21:20:04;13.10;99.90
30336;DHT22;17142;47.990;7.846;2022-10-31T21:22:33;13.00;99.90
30336;DHT22;17142;47.990;7.846;2022-10-31T21:24:59;13.00;99.90
30336;DHT22;17142;47.990;7.846;2022-10-31T21:27:24;12.90;99.90
30336;DHT22;17142;47.990;7.846;2022-10-31T21:29:50;12.80;99.90
30336;DHT22;17142;47.990;7.846;2022-10-31T21:32:16;12.80;99.90
30336;DHT22;17142;47.990;7.846;2022-10-31T21:34:41;12.80;99.90
30336;DHT22;17142;47.990;7.846;2022-10-31T21:37:07;13.00;99.90
30336;DHT22;17142;47.990;7.846;2022-10-31T21:39:35;13.00;99.90
30336;DHT22;17142;47.990;7.846;2022-10-31T21:42:03;13.00;99.90
30336;DHT22;17142;47.990;7.846;2022-10-31T21:44:28;13.00;99.90
30336;DHT22;17142;47.990;7.846;2022-10-31T21:46:56;13.10;99.90
30336;DHT22;17142;47.990;7.846;2022-10-31T21:49:29;13.10;99.90
30336;DHT22;17142;47.990;7.846;2022-10-31T21:51:54;13.10;99.90
30336;DHT22;17142;47.990;7.846;2022-10-31T21:54:20;13.10;99.90
30336;DHT22;17142;47.990;7.846;2022-10-31T21:56:54;13.20;99.90
30336;DHT22;17142;47.990;7.846;2022-10-31T21:59:20;13.30;99.90
30336;DHT22;17142;47.990;7.846;2022-10-31T22:01:45;13.40;99.90
30336;DHT22;17142;47.990;7.846;2022-10-31T22:04:13;13.40;99.90
30336;DHT22;17142;47.990;7.846;2022-10-31T22:06:39;13.30;99.90
30336;DHT22;17142;47.990;7.846;2022-10-31T22:09:06;13.30;99.90
30336;DHT22;17142;47.990;7.846;2022-10-31T22:11:34;13.30;99.90
30336;DHT22;17142;47.990;7.846;2022-10-31T22:14:01;13.30;99.90
30336;DHT22;17142;47.990;7.846;2022-10-31T22:16:28;13.30;99.90
30336;DHT22;17142;47.990;7.846;2022-10-31T22:18:56;13.40;99.90
30336;DHT22;17142;47.990;7.846;2022-10-31T22:21:26;13.40;99.90
30336;DHT22;17142;47.990;7.846;2022-10-31T22:23:56;13.40;99.90
30336;DHT22;17142;47.990;7.846;2022-10-31T22:26:22;13.40;99.90
30336;DHT22;17142;47.990;7.846;2022-10-31T22:28:53;13.40;99.90
30336;DHT22;17142;47.990;7.846;2022-10-31T22:31:21;13.50;99.90
30336;DHT22;17142;47.990;7.846;2022-10-31T22:33:48;13.50;99.90
30336;DHT22;17142;47.990;7.846;2022-10-31T22:36:16;13.50;99.90
30336;DHT22;17142;47.990;7.846;2022-10-31T22:38:43;13.50;99.90
30336;DHT22;17142;47.990;7.846;2022-10-31T22:41:14;13.50;99.90
30336;DHT22;17142;47.990;7.846;2022-10-31T22:43:43;13.50;99.90
30336;DHT22;17142;47.990;7.846;2022-10-31T22:46:15;13.50;99.90
30336;DHT22;17142;47.990;7.846;2022-10-31T22:48:43;13.40;99.90
30336;DHT22;17142;47.990;7.846;2022-10-31T22:51:17;13.50;99.90
30336;DHT22;17142;47.990;7.846;2022-10-31T22:53:43;13.50;99.90
30336;DHT22;17142;47.990;7.846;2022-10-31T22:56:13;13.50;99.90
30336;DHT22;17142;47.990;7.846;2022-10-31T22:58:41;13.40;99.90
30336;DHT22;17142;47.990;7.846;2022-10-31T23:01:09;13.40;99.90
30336;DHT22;17142;47.990;7.846;2022-10-31T23:03:38;13.40;99.90
